Time;durP1;ratioP1;P1;durP2;ratioP2;P2;SDS_P1;SDS_P2;PMS_P1;PMS_P2;Temp;Humidity;BMP_temperature;BMP_pressure;BME280_temperature;BME280_humidity;BME280_pressure;Samples;Min_cycle;Max_cycle;Signal;HPM_P1;HPM_P2
2022/08/11 00:00:07;;;;;;;4.00;2.10;;;;;;;20.75;73.47;101116.94;4944746;28;20039;-66
2022/08/11 00:02:39;;;;;;;6.03;2.65;;;;;;;20.72;73.63;101113.69;4920489;28;20046;-66
2022/08/11 00:05:09;;;;;;;3.70;2.00;;;;;;;20.67;74.02;101114.06;4926929;29;20040;-66
2022/08/11 00:07:44;;;;;;;3.20;1.63;;;;;;;20.63;74.87;101111.75;4950959;29;20027;-67
2022/08/11 00:10:12;;;;;;;11.02;1.98;;;;;;;20.57;76.13;101113.13;4952429;28;20063;-66
2022/08/11 00:12:37;;;;;;;4.25;2.03;;;;;;;20.46;77.30;101110.44;5021079;28;20389;-66
2022/08/11 00:15:04;;;;;;;7.95;2.13;;;;;;;20.47;77.44;101105.97;4952772;28;20031;-66
2022/08/11 00:17:31;;;;;;;7.03;2.30;;;;;;;20.41;77.56;101106.47;4954539;28;20038;-66
2022/08/11 00:20:04;;;;;;;5.18;2.10;;;;;;;20.34;78.27;101114.97;4957330;28;20076;-66
2022/08/11 00:22:30;;;;;;;4.50;1.90;;;;;;;20.31;78.44;101112.50;4953809;28;20366;-66
2022/08/11 00:24:56;;;;;;;3.13;1.88;;;;;;;20.23;78.38;101098.91;4952587;28;20047;-66
2022/08/11 00:27:34;;;;;;;4.53;1.88;;;;;;;20.27;78.40;101111.06;4954585;28;20038;-67
2022/08/11 00:29:59;;;;;;;4.10;1.60;;;;;;;20.25;78.82;101112.97;4969342;28;20023;-67
2022/08/11 00:32:26;;;;;;;4.65;2.45;;;;;;;20.16;80.06;101097.69;4954156;29;20100;-66
2022/08/11 00:34:53;;;;;;;5.32;1.95;;;;;;;20.15;80.90;101106.66;4952555;28;20023;-66
2022/08/11 00:37:20;;;;;;;3.42;1.60;;;;;;;20.12;81.70;101106.03;4954086;28;20106;-65
2022/08/11 00:39:49;;;;;;;3.63;2.03;;;;;;;20.03;83.05;101102.28;4953727;29;20061;-66
2022/08/11 00:42:29;;;;;;;5.70;2.10;;;;;;;20.01;83.53;101108.72;4936735;28;20100;-65
2022/08/11 00:45:10;;;;;;;4.65;1.83;;;;;;;19.94;84.15;101105.66;4950327;28;20031;-65
2022/08/11 00:48:02;;;;;;;4.88;2.10;;;;;;;19.86;84.95;101105.41;4940615;28;20039;-66
2022/08/11 00:50:44;;;;;;;4.05;1.95;;;;;;;19.83;83.96;101101.19;4952759;28;20089;-65
2022/08/11 00:53:22;;;;;;;2.90;1.80;;;;;;;19.80;83.91;101106.72;4952760;28;20110;-66
2022/08/11 00:56:23;;;;;;;7.57;2.08;;;;;;;19.75;84.27;101102.72;4948185;28;20746;-66
2022/08/11 00:59:07;;;;;;;4.78;2.78;;;;;;;19.75;84.06;101098.25;4936006;28;20101;-66
2022/08/11 01:01:36;;;;;;;5.20;1.87;;;;;;;19.75;84.73;101102.72;4953204;28;20065;-67
2022/08/11 01:04:23;;;;;;;4.20;1.85;;;;;;;19.39;84.22;101053.91;4953417;28;20353;-67
2022/08/11 01:06:57;;;;;;;5.30;2.45;;;;;;;19.68;84.97;101104.16;4953730;29;20058;-67
2022/08/11 01:09:53;;;;;;;4.20;2.03;;;;;;;19.59;85.58;101103.06;4953191;28;20027;-67
2022/08/11 01:12:28;;;;;;;4.07;1.83;;;;;;;19.60;87.25;101114.59;4931271;28;20106;-67
2022/08/11 01:14:56;;;;;;;5.15;2.20;;;;;;;19.52;89.61;101107.16;4953331;28;20043;-67
2022/08/11 01:17:59;;;;;;;9.55;1.95;;;;;;;19.43;90.84;101109.69;4953059;28;20035;-66
2022/08/11 01:20:58;;;;;;;3.75;1.95;;;;;;;19.32;92.30;101105.97;4941474;28;20046;-66
2022/08/11 01:24:05;;;;;;;5.43;2.78;;;;;;;19.19;94.57;101102.53;4953180;28;20477;-67
2022/08/11 01:26:42;;;;;;;4.10;1.73;;;;;;;19.10;95.59;101105.84;4953347;28;20042;-66
2022/08/11 01:29:42;;;;;;;3.50;2.33;;;;;;;19.02;97.75;101108.25;4949471;28;20031;-67
2022/08/11 01:32:47;;;;;;;7.72;2.63;;;;;;;18.98;98.42;101109.44;4953531;28;20468;-66
2022/08/11 01:35:49;;;;;;;3.55;1.88;;;;;;;18.94;98.96;101109.78;4952721;28;20046;-67
2022/08/11 01:38:34;;;;;;;3.55;2.00;;;;;;;18.86;98.83;101108.53;4952705;28;20130;-66
2022/08/11 01:41:19;;;;;;;3.33;2.05;;;;;;;18.86;99.77;101102.34;4940038;28;20038;-67
2022/08/11 01:47:49;;;;;;;3.42;1.88;;;;;;;18.79;100.00;101095.78;4937938;28;20049;-67
2022/08/11 01:50:22;;;;;;;4.13;2.40;;;;;;;18.77;100.00;101108.34;4935977;28;20036;-67
2022/08/11 01:53:04;;;;;;;6.07;1.75;;;;;;;18.72;100.00;101103.34;4965164;28;20039;-67
2022/08/11 01:55:29;;;;;;;9.60;2.03;;;;;;;18.68;100.00;101104.56;4967378;28;20105;-67
2022/08/11 01:58:12;;;;;;;6.57;2.30;;;;;;;18.64;100.00;101108.41;4948054;28;20134;-67
2022/08/11 02:00:47;;;;;;;4.18;2.10;;;;;;;18.61;100.00;101102.44;4945317;29;20031;-67
2022/08/11 02:03:28;;;;;;;4.55;2.25;;;;;;;18.58;100.00;101108.84;4940997;28;20063;-67
2022/08/11 02:09:23;;;;;;;4.38;2.45;;;;;;;18.47;100.00;101106.06;4948388;28;20105;-67
2022/08/11 02:11:50;;;;;;;4.10;2.05;;;;;;;18.44;100.00;101100.09;4941902;29;20050;-67
2022/08/11 02:14:27;;;;;;;7.20;2.42;;;;;;;18.41;100.00;101108.31;4934201;28;20101;-67
2022/08/11 02:17:17;;;;;;;6.95;2.65;;;;;;;18.37;100.00;101111.19;4934913;29;20042;-67
2022/08/11 02:25:53;;;;;;;3.85;2.40;;;;;;;18.16;100.00;101107.38;4938128;28;20092;-67
2022/08/11 02:28:22;;;;;;;6.53;2.17;;;;;;;18.16;100.00;101103.88;4935208;28;20497;-67
2022/08/11 02:34:11;;;;;;;3.40;2.35;;;;;;;18.08;100.00;101101.72;4936911;28;20038;-67
2022/08/11 02:36:42;;;;;;;3.97;2.05;;;;;;;17.78;100.00;101063.97;4967132;28;20043;-68
2022/08/11 02:39:10;;;;;;;2.97;1.88;;;;;;;17.71;100.00;101049.44;4966928;28;20023;-67
2022/08/11 02:44:54;;;;;;;3.67;2.25;;;;;;;17.97;100.00;101096.34;4925941;28;20112;-67
2022/08/11 02:47:31;;;;;;;3.88;2.38;;;;;;;17.94;100.00;101095.69;4966566;28;20033;-66
2022/08/11 02:50:24;;;;;;;3.38;2.25;;;;;;;17.86;100.00;101094.41;4952188;28;20027;-67
2022/08/11 02:53:10;;;;;;;4.03;2.33;;;;;;;17.81;100.00;101098.38;4927450;28;20794;-66
2022/08/11 02:56:10;;;;;;;4.55;2.58;;;;;;;17.76;100.00;101092.50;5014121;28;20093;-66
2022/08/11 02:58:43;;;;;;;5.75;2.67;;;;;;;17.70;100.00;101092.91;4952073;28;20035;-66
2022/08/11 03:01:22;;;;;;;5.88;2.30;;;;;;;17.32;100.00;101039.69;4951536;28;20031;-67
2022/08/11 03:04:04;;;;;;;3.08;1.73;;;;;;;17.63;100.00;101092.50;4951210;29;20047;-67
2022/08/11 03:06:36;;;;;;;9.27;2.40;;;;;;;17.61;100.00;101094.38;4931331;28;20033;-67
2022/08/11 03:09:13;;;;;;;3.80;2.13;;;;;;;17.58;100.00;101093.75;4951388;28;20038;-67
2022/08/11 03:18:05;;;;;;;5.03;2.53;;;;;;;17.59;100.00;101098.09;4988539;28;20901;-67
2022/08/11 03:21:02;;;;;;;9.93;3.08;;;;;;;17.56;100.00;101098.31;4911114;28;20093;-67
2022/08/11 03:23:43;;;;;;;4.93;2.03;;;;;;;17.44;100.00;101075.22;4908981;28;20031;-67
2022/08/11 03:26:32;;;;;;;2.95;1.60;;;;;;;17.52;100.00;101091.47;4893107;28;20074;-67
2022/08/11 03:29:05;;;;;;;7.93;2.65;;;;;;;17.54;100.00;101092.25;4976558;28;20035;-67
2022/08/11 03:31:43;;;;;;;5.30;2.40;;;;;;;17.54;100.00;101092.25;4909283;28;20031;-67
2022/08/11 03:34:13;;;;;;;3.63;1.92;;;;;;;17.55;100.00;101093.91;4906496;29;20469;-67
2022/08/11 03:36:51;;;;;;;4.43;2.17;;;;;;;17.57;100.00;101097.38;4899245;29;20048;-67
2022/08/11 03:39:31;;;;;;;7.18;2.72;;;;;;;17.58;100.00;101093.75;4918491;28;20038;-67
2022/08/11 03:42:22;;;;;;;4.28;2.25;;;;;;;17.58;100.00;101093.75;4902430;28;20039;-67
2022/08/11 03:45:25;;;;;;;5.70;2.45;;;;;;;17.57;100.00;101097.38;4914395;28;20031;-67
2022/08/11 03:48:01;;;;;;;5.18;2.15;;;;;;;17.54;100.00;101102.88;4969367;28;20971;-67
2022/08/11 03:50:47;;;;;;;4.50;2.50;;;;;;;17.52;100.00;101094.13;4909424;28;20789;-67
2022/08/11 03:53:26;;;;;;;8.32;2.70;;;;;;;17.49;100.00;101102.31;4912371;28;20039;-67
2022/08/11 03:56:19;;;;;;;5.60;2.30;;;;;;;17.44;100.00;101101.78;4912865;28;20070;-67
2022/08/11 03:59:34;;;;;;;4.72;2.10;;;;;;;17.38;100.00;101087.09;4912808;28;20039;-67
2022/08/11 04:02:03;;;;;;;;;;;;;;;17.37;100.00;101101.34;4895490;28;20173;-67
2022/08/11 04:04:53;;;;;;;4.28;2.40;;;;;;;17.36;100.00;101095.19;4909255;28;20957;-67
2022/08/11 04:07:37;;;;;;;6.65;2.60;;;;;;;17.35;100.00;101090.81;4909027;29;20031;-67
2022/08/11 04:10:30;;;;;;;5.47;2.83;;;;;;;17.27;100.00;101079.84;4909250;28;20055;-67
2022/08/11 04:13:20;;;;;;;5.25;2.33;;;;;;;17.31;100.00;101091.97;4908576;28;20051;-67
2022/08/11 04:16:14;;;;;;;3.88;2.22;;;;;;;17.23;100.00;101089.00;4901249;28;20074;-67
2022/08/11 04:19:01;;;;;;;3.50;2.30;;;;;;;17.19;100.00;101086.63;4906095;28;20456;-68
2022/08/11 04:21:55;;;;;;;4.50;2.45;;;;;;;17.17;100.00;101088.50;4904450;28;20241;-68
2022/08/11 04:24:51;;;;;;;2.95;2.10;;;;;;;17.16;100.00;101082.38;4908123;28;20946;-67
2022/08/11 04:27:43;;;;;;;4.25;2.22;;;;;;;17.15;100.00;101090.44;4910910;28;20027;-66
2022/08/11 04:30:54;;;;;;;6.05;3.05;;;;;;;17.07;100.00;101080.31;4922569;28;20130;-66
2022/08/11 04:33:40;;;;;;;5.55;2.25;;;;;;;17.10;100.00;101090.72;4949508;28;20956;-66
2022/08/11 04:36:14;;;;;;;3.67;2.35;;;;;;;17.09;100.00;101085.53;4920384;28;20569;-66
2022/08/11 04:39:08;;;;;;;6.60;2.45;;;;;;;17.09;100.00;101096.16;4912120;28;20035;-66
2022/08/11 04:45:00;;;;;;;5.25;3.05;;;;;;;17.05;100.00;101095.50;4892526;28;20761;-67
2022/08/11 05:03:11;;;;;;;4.82;2.65;;;;;;;17.10;100.00;101098.69;4908311;29;19972;-66
2022/08/11 05:06:10;;;;;;;5.18;3.03;;;;;;;17.13;100.00;101092.34;4931436;28;20027;-66
2022/08/11 05:08:35;;;;;;;5.97;2.30;;;;;;;17.18;100.00;101093.75;4920201;28;20035;-66
2022/08/11 05:11:25;;;;;;;7.75;2.78;;;;;;;17.22;100.00;101103.22;4916446;28;20046;-66
2022/08/11 05:37:01;;;;;;;8.90;2.20;;;;;;;17.58;100.00;101109.69;4917619;28;20901;-66
2022/08/11 05:56:20;;;;;;;5.93;2.95;;;;;;;18.09;100.00;101108.75;4914044;29;20050;-67
2022/08/11 05:58:51;;;;;;;4.50;2.67;;;;;;;18.17;100.00;101109.09;4913595;28;20046;-66
2022/08/11 06:01:26;;;;;;;4.25;2.42;;;;;;;18.27;100.00;101114.59;4918103;28;20034;-67
2022/08/11 06:06:39;;;;;;;5.03;3.33;;;;;;;18.42;100.00;101113.50;4889902;28;20246;-67
2022/08/11 06:09:06;;;;;;;7.55;3.08;;;;;;;18.49;100.00;101109.44;4897996;28;20812;-68
2022/08/11 06:11:38;;;;;;;6.07;2.88;;;;;;;18.54;100.00;101110.03;4897354;28;20059;-67
2022/08/11 06:14:05;;;;;;;6.70;3.13;;;;;;;18.69;100.00;101113.41;4914814;28;20031;-67
2022/08/11 06:16:31;;;;;;;6.95;3.08;;;;;;;18.66;100.00;101092.28;4975664;28;21054;-67
2022/08/11 06:18:57;;;;;;;7.85;3.10;;;;;;;18.90;100.00;101119.78;4976245;28;20035;-66
2022/08/11 06:21:22;;;;;;;5.20;2.90;;;;;;;19.01;100.00;101111.03;4898120;28;20058;-67
2022/08/11 06:23:48;;;;;;;5.32;3.08;;;;;;;19.07;100.00;101110.56;4913895;28;20852;-67
2022/08/11 06:26:14;;;;;;;7.03;3.38;;;;;;;19.14;100.00;101104.66;4913276;28;20059;-67
2022/08/11 06:28:45;;;;;;;5.75;3.22;;;;;;;19.16;100.00;101096.59;4910878;28;20019;-67
2022/08/11 06:31:19;;;;;;;6.07;2.95;;;;;;;19.21;100.00;101084.59;4919194;28;20031;-66
2022/08/11 06:34:06;;;;;;;5.07;2.83;;;;;;;19.40;100.00;101110.69;4975110;28;20138;-67
2022/08/11 06:36:46;;;;;;;5.25;3.28;;;;;;;19.48;100.00;101112.81;4907430;28;20880;-66
2022/08/11 06:39:26;;;;;;;7.68;3.30;;;;;;;19.55;100.00;101120.25;4895645;28;20031;-67
2022/08/11 06:42:15;;;;;;;6.03;2.90;;;;;;;19.66;100.00;101124.78;4894558;28;20043;-66
2022/08/11 06:44:47;;;;;;;11.45;3.17;;;;;;;19.75;100.00;101130.25;4922365;28;20886;-66
2022/08/11 06:47:14;;;;;;;7.82;3.10;;;;;;;19.86;100.00;101116.09;4967402;28;20139;-66
2022/08/11 06:52:38;;;;;;;7.20;3.28;;;;;;;19.99;100.00;101106.16;4907728;28;20046;-66
2022/08/11 06:55:07;;;;;;;7.75;3.10;;;;;;;20.09;100.00;101112.47;4883810;28;20034;-66
2022/08/11 07:00:27;;;;;;;7.22;3.40;;;;;;;20.20;100.00;101108.97;4925510;28;20928;-66
2022/08/11 07:03:09;;;;;;;5.95;2.90;;;;;;;20.22;100.00;101112.34;4919473;28;20035;-66
2022/08/11 07:05:42;;;;;;;9.88;3.83;;;;;;;20.27;100.00;101120.91;4926427;28;20062;-66
2022/08/11 07:16:46;;;;;;;7.32;3.35;;;;;;;20.46;100.00;101106.91;4902844;28;20037;-66
2022/08/11 07:30:25;;;;;;;8.57;3.17;;;;;;;20.81;100.00;101100.44;4918581;28;20441;-66
2022/08/11 07:32:54;;;;;;;7.07;3.40;;;;;;;20.94;100.00;101110.97;4912202;28;20051;-65
2022/08/11 07:35:27;;;;;;;7.13;3.33;;;;;;;21.00;100.00;101110.47;4904006;28;20043;-65
2022/08/11 07:37:56;;;;;;;7.43;3.80;;;;;;;21.13;100.00;101118.34;4890939;28;20131;-66
2022/08/11 07:40:23;;;;;;;5.20;3.13;;;;;;;21.21;100.00;101118.56;4893609;28;20985;-66
2022/08/11 07:42:49;;;;;;;13.20;3.90;;;;;;;21.28;99.35;101106.41;4985584;28;20041;-66
2022/08/11 07:53:32;;;;;;;5.93;3.22;;;;;;;21.73;95.11;101125.75;4920000;28;20062;-66
2022/08/11 07:55:59;;;;;;;8.90;3.75;;;;;;;21.77;95.07;101117.31;4905902;28;20027;-66
2022/08/11 08:17:51;;;;;;;7.57;3.63;;;;;;;22.18;91.68;101100.38;4915350;28;20929;-67
2022/08/11 08:20:19;;;;;;;6.95;3.22;;;;;;;22.33;92.71;101120.47;4927176;28;20023;-67
2022/08/11 08:22:47;;;;;;;10.48;3.33;;;;;;;22.43;91.30;101123.19;4915783;28;20521;-67
2022/08/11 08:25:13;;;;;;;4.78;2.83;;;;;;;22.51;91.42;101117.16;4897186;28;20035;-67
2022/08/11 08:27:39;;;;;;;6.70;3.33;;;;;;;22.61;90.69;101118.03;4921312;28;20036;-67
2022/08/11 08:32:50;;;;;;;7.70;2.88;;;;;;;22.79;88.30;101127.13;4918108;28;20051;-67
2022/08/11 08:35:16;;;;;;;5.95;3.35;;;;;;;22.85;87.83;101122.06;4917483;28;20093;-66
2022/08/11 08:37:41;;;;;;;8.60;3.45;;;;;;;22.92;87.31;101122.38;4910905;28;20031;-65
2022/08/11 08:40:08;;;;;;;6.30;3.20;;;;;;;23.01;86.63;101115.34;4913794;28;20111;-66
2022/08/11 08:42:38;;;;;;;11.32;3.40;;;;;;;23.11;84.96;101119.72;4913635;28;20031;-66
2022/08/11 08:45:07;;;;;;;7.13;2.90;;;;;;;23.23;84.84;101115.91;4896107;28;20090;-66
2022/08/11 08:47:38;;;;;;;5.10;3.42;;;;;;;23.31;84.69;101117.91;4900432;28;20035;-66
2022/08/11 08:50:07;;;;;;;7.85;3.33;;;;;;;23.44;83.31;101117.63;4895394;28;20134;-66
2022/08/11 08:52:39;;;;;;;17.15;3.47;;;;;;;23.54;83.11;101122.03;4916007;28;20027;-66
2022/08/11 08:55:05;;;;;;;3.75;2.50;;;;;;;23.66;81.13;101117.31;4978470;28;20032;-65
2022/08/11 08:57:33;;;;;;;6.03;3.13;;;;;;;23.77;79.23;101120.72;4909777;28;20070;-66
2022/08/11 09:00:00;;;;;;;4.18;2.67;;;;;;;23.64;78.23;101081.75;4924304;28;20860;-66
2022/08/11 09:02:25;;;;;;;7.78;3.28;;;;;;;23.83;79.24;101103.16;4973000;28;20031;-66
2022/08/11 09:04:51;;;;;;;6.32;3.45;;;;;;;24.07;79.16;101116.97;4976230;28;20097;-66
2022/08/11 09:07:20;;;;;;;10.68;3.53;;;;;;;24.18;78.05;101114.13;4930844;28;20039;-65
2022/08/11 09:09:51;;;;;;;5.03;2.92;;;;;;;24.33;75.29;101112.66;4902848;28;20858;-66
2022/08/11 09:12:20;;;;;;;7.63;3.30;;;;;;;24.50;75.78;101104.81;4909247;28;20038;-66
2022/08/11 09:15:04;;;;;;;4.03;2.38;;;;;;;24.61;75.38;101108.13;4913893;28;20031;-66
2022/08/11 09:17:34;;;;;;;5.90;3.10;;;;;;;24.62;74.68;101100.91;4895647;28;20066;-66
2022/08/11 09:20:06;;;;;;;7.57;3.15;;;;;;;24.73;74.70;101095.34;4907773;28;20063;-66
2022/08/11 09:28:03;;;;;;;7.00;3.13;;;;;;;25.17;69.61;101107.97;4919592;28;20042;-66
2022/08/11 09:30:30;;;;;;;6.00;3.35;;;;;;;25.22;67.77;101102.09;4907371;28;20146;-66
2022/08/11 09:32:59;;;;;;;13.43;3.30;;;;;;;25.37;67.03;101105.94;4903656;28;20390;-66
2022/08/11 09:35:28;;;;;;;5.75;2.67;;;;;;;25.49;69.02;101095.75;4910178;29;20035;-66
2022/08/11 09:40:46;;;;;;;15.77;3.20;;;;;;;25.81;66.68;101096.06;4911040;28;20038;-67
2022/08/11 09:45:58;;;;;;;5.97;2.88;;;;;;;26.08;67.58;101093.19;4913025;28;20094;-66
2022/08/11 09:48:25;;;;;;;11.35;3.30;;;;;;;25.89;66.94;101050.31;4977166;28;20147;-66
2022/08/11 09:50:53;;;;;;;7.35;3.08;;;;;;;26.21;66.02;101088.25;4927525;28;20142;-67
2022/08/11 09:53:20;;;;;;;5.75;2.88;;;;;;;26.41;65.50;101088.84;4911222;28;20062;-67
2022/08/11 09:55:46;;;;;;;5.97;2.75;;;;;;;26.38;64.81;101073.84;4927567;28;20031;-67
2022/08/11 09:58:13;;;;;;;4.40;2.97;;;;;;;26.43;63.83;101066.09;4927893;28;20031;-67
2022/08/11 10:00:39;;;;;;;7.55;3.30;;;;;;;26.59;64.44;101086.06;4905869;28;20031;-66
2022/08/11 10:03:14;;;;;;;8.43;3.55;;;;;;;26.57;62.19;101061.94;4895886;28;20400;-67
2022/08/11 10:08:31;;;;;;;11.10;3.50;;;;;;;26.61;60.53;101046.28;4915413;28;20917;-65
2022/08/11 10:10:56;;;;;;;4.93;2.63;;;;;;;26.82;61.24;101070.97;4971362;28;20036;-66
2022/08/11 10:13:27;;;;;;;6.13;3.03;;;;;;;27.00;61.83;101087.88;4914226;28;20031;-66
2022/08/11 10:15:57;;;;;;;12.85;3.40;;;;;;;27.09;61.53;101067.97;4908213;28;21027;-66
2022/08/11 10:18:41;;;;;;;9.82;3.35;;;;;;;27.19;61.50;101071.38;4941727;28;20032;-66
2022/08/11 10:21:27;;;;;;;5.33;3.03;;;;;;;27.34;59.71;101066.97;4911212;28;20109;-66
2022/08/11 10:26:51;;;;;;;5.68;2.53;;;;;;;27.51;57.05;101069.72;4918609;28;20074;-65
2022/08/11 10:34:47;;;;;;;4.43;2.38;;;;;;;27.71;56.94;101052.97;4910759;29;20129;-66
2022/08/11 10:37:14;;;;;;;6.57;2.92;;;;;;;27.79;57.15;101050.25;4973876;28;20058;-65
2022/08/11 10:39:39;;;;;;;4.78;2.60;;;;;;;27.94;55.88;101063.91;4900124;28;20086;-65
2022/08/11 10:44:52;;;;;;;8.00;2.85;;;;;;;28.16;55.07;101057.78;4925778;28;20483;-66
2022/08/11 10:47:34;;;;;;;13.13;2.65;;;;;;;28.28;54.05;101042.88;4921346;28;20126;-66
2022/08/11 11:01:03;;;;;;;3.65;2.47;;;;;;;28.36;50.93;100980.63;4960960;28;20163;-66
2022/08/11 11:03:30;;;;;;;6.97;3.35;;;;;;;28.77;50.04;101029.09;4909969;28;20028;-66
2022/08/11 11:06:02;;;;;;;5.25;2.53;;;;;;;28.92;50.94;101011.06;4934427;28;21682;-66
2022/08/11 11:11:15;;;;;;;6.68;2.42;;;;;;;29.35;49.36;101026.63;4990324;28;20062;-65
2022/08/11 11:19:17;;;;;;;5.77;2.57;;;;;;;29.66;47.05;101009.41;4951123;28;20097;-67
2022/08/11 11:21:43;;;;;;;6.18;2.78;;;;;;;29.81;46.37;101002.94;4943314;28;20027;-65
2022/08/11 11:24:12;;;;;;;6.93;2.63;;;;;;;29.92;46.01;101009.81;4922633;28;20035;-66
2022/08/11 11:26:42;;;;;;;3.95;2.33;;;;;;;30.11;46.54;101003.84;4936702;28;20039;-66
2022/08/11 11:29:29;;;;;;;5.65;2.78;;;;;;;30.37;45.80;101000.59;5000873;28;20035;-66
2022/08/11 11:32:18;;;;;;;6.03;2.65;;;;;;;30.61;44.94;101011.13;4947450;28;20057;-66
2022/08/11 11:35:09;;;;;;;4.68;1.85;;;;;;;30.87;44.30;100991.56;4945358;28;20044;-66
2022/08/11 11:37:35;;;;;;;6.20;2.33;;;;;;;31.12;44.57;101002.91;4936409;28;20036;-66
2022/08/11 11:40:05;;;;;;;5.63;3.10;;;;;;;31.34;43.31;101007.25;4942905;28;20473;-65
2022/08/11 11:42:30;;;;;;;4.90;2.50;;;;;;;31.53;44.07;100995.75;4946330;28;20034;-66
2022/08/11 11:44:56;;;;;;;4.38;2.63;;;;;;;31.68;43.06;100976.59;4946787;28;20023;-67
2022/08/11 11:47:22;;;;;;;4.25;2.55;;;;;;;32.62;42.70;101002.16;4945580;28;20065;-67
2022/08/11 11:49:48;;;;;;;12.10;2.63;;;;;;;33.92;41.59;100995.06;4952419;28;20035;-67
2022/08/11 11:52:18;;;;;;;8.73;2.30;;;;;;;35.46;41.10;100998.38;4952954;28;20031;-66
2022/08/11 11:54:49;;;;;;;13.63;2.72;;;;;;;36.84;40.47;101008.56;4935214;28;20030;-66
2022/08/11 12:02:45;;;;;;;5.82;2.33;;;;;;;39.37;34.95;101003.03;4932130;28;20509;-66
2022/08/11 12:05:12;;;;;;;8.35;2.22;;;;;;;39.84;32.35;100998.81;4999216;28;20079;-67
2022/08/11 12:10:24;;;;;;;6.57;2.70;;;;;;;41.00;32.36;100991.88;4939272;28;20111;-66
2022/08/11 12:15:34;;;;;;;7.90;2.65;;;;;;;41.94;31.92;100992.00;4951351;28;20050;-67
2022/08/11 12:18:00;;;;;;;9.73;3.15;;;;;;;41.65;28.93;100979.66;4920826;28;20040;-66
2022/08/11 12:20:26;;;;;;;8.45;2.80;;;;;;;41.33;29.37;100976.13;4933739;28;20170;-66
2022/08/11 12:28:24;;;;;;;11.02;3.05;;;;;;;42.34;31.32;100973.94;4934533;28;20062;-66
2022/08/11 12:30:52;;;;;;;4.57;2.78;;;;;;;42.35;27.07;100975.59;4920391;28;20515;-66
2022/08/11 12:33:18;;;;;;;13.13;2.95;;;;;;;42.02;27.22;100961.09;4939037;28;20031;-66
2022/08/11 12:35:45;;;;;;;5.95;2.42;;;;;;;42.36;28.06;100964.25;4937616;29;20387;-66
2022/08/11 12:38:11;;;;;;;7.75;2.72;;;;;;;42.75;26.52;100959.09;4936250;28;20027;-67
2022/08/11 12:46:17;;;;;;;8.65;2.58;;;;;;;43.23;26.12;100952.97;4941729;28;20604;-67
2022/08/11 12:54:27;;;;;;;4.88;2.47;;;;;;;42.16;25.18;100906.97;4990788;28;20042;-66
2022/08/11 13:05:19;;;;;;;7.32;2.38;;;;;;;40.72;25.94;100943.38;4990047;28;20716;-66
2022/08/11 13:07:46;;;;;;;5.13;2.22;;;;;;;39.08;25.98;100923.31;4931761;28;20034;-66
2022/08/11 13:10:13;;;;;;;6.07;2.60;;;;;;;37.48;27.84;100916.38;5013771;28;20492;-67
2022/08/11 13:12:48;;;;;;;6.65;2.75;;;;;;;36.79;28.72;100929.78;5007982;28;20036;-67
2022/08/11 13:15:17;;;;;;;8.07;2.70;;;;;;;36.38;28.88;100937.97;4946745;29;20054;-66
2022/08/11 13:17:44;;;;;;;5.32;2.70;;;;;;;35.88;28.27;100934.59;4935456;29;20420;-67
2022/08/11 13:20:14;;;;;;;4.75;2.75;;;;;;;35.13;28.89;100912.03;4926569;28;20474;-66
2022/08/11 13:22:44;;;;;;;6.25;2.70;;;;;;;34.71;28.50;100918.28;4937963;28;20031;-66
2022/08/11 13:25:10;;;;;;;6.00;2.45;;;;;;;34.28;29.15;100912.63;4934639;28;20040;-66
2022/08/11 13:27:36;;;;;;;7.00;2.63;;;;;;;33.96;30.54;100913.63;4937223;28;20070;-66
2022/08/11 13:32:47;;;;;;;4.45;2.20;;;;;;;33.52;31.46;100907.06;4915345;28;20602;-66
2022/08/11 13:35:16;;;;;;;5.05;2.60;;;;;;;33.00;31.93;100850.72;4946116;28;20388;-66
2022/08/11 13:37:45;;;;;;;8.50;2.45;;;;;;;33.25;31.95;100909.00;4933974;28;20019;-66
2022/08/11 13:40:12;;;;;;;5.60;2.30;;;;;;;33.12;31.88;100897.28;4935545;29;20102;-68
2022/08/11 13:42:38;;;;;;;5.85;2.35;;;;;;;32.95;31.17;100901.47;4940451;28;20166;-66
2022/08/11 13:45:06;;;;;;;5.30;2.67;;;;;;;32.53;31.60;100906.22;4936040;28;20027;-67
2022/08/11 13:47:32;;;;;;;4.43;2.70;;;;;;;32.41;31.98;100905.16;4924751;28;20114;-67
2022/08/11 13:49:57;;;;;;;9.65;2.08;;;;;;;32.27;32.15;100898.84;4935290;28;20073;-66
2022/08/11 13:52:23;;;;;;;4.15;2.22;;;;;;;31.92;32.39;100845.56;4933648;28;20028;-67
2022/08/11 13:54:52;;;;;;;6.57;2.50;;;;;;;32.11;32.10;100879.34;4932631;28;20043;-67
2022/08/11 13:57:18;;;;;;;8.25;2.42;;;;;;;32.19;34.09;100885.44;4934812;28;20035;-66
2022/08/11 13:59:45;;;;;;;6.78;2.65;;;;;;;32.28;32.88;100886.91;4932881;29;20078;-66
2022/08/11 14:02:15;;;;;;;5.38;2.33;;;;;;;32.28;32.73;100884.19;4994127;28;20454;-66
2022/08/11 14:04:54;;;;;;;3.72;2.17;;;;;;;32.12;31.76;100822.00;4933234;28;20113;-66
2022/08/11 14:07:21;;;;;;;5.13;2.53;;;;;;;32.38;32.68;100887.34;4992668;28;20038;-66
2022/08/11 14:09:47;;;;;;;5.57;3.20;;;;;;;32.08;31.99;100882.44;4925583;28;20118;-66
2022/08/11 14:15:32;;;;;;;6.05;2.80;;;;;;;31.74;33.09;100869.75;4918896;28;20044;-66
2022/08/11 14:18:04;;;;;;;4.50;2.50;;;;;;;31.86;32.58;100881.75;4909660;28;20230;-67
2022/08/11 14:22:05;;;;;;;14.95;2.72;;;;;;;32.01;32.99;100876.16;4982462;28;20042;-66
2022/08/11 14:23:21;;;;;;;5.80;2.47;;;;;;;32.19;32.37;100871.81;4919193;28;20206;-66
2022/08/11 14:28:32;;;;;;;;;;;;;;;32.04;32.42;100862.94;4911766;28;20154;-66
2022/08/11 14:30:58;;;;;;;4.78;2.70;;;;;;;31.80;32.01;100866.25;4910843;28;19918;-66
2022/08/11 14:33:24;;;;;;;5.80;2.58;;;;;;;31.67;32.25;100858.84;4893940;28;20027;-66
2022/08/11 14:35:49;;;;;;;6.10;2.63;;;;;;;31.82;32.55;100877.75;4903184;28;20150;-66
2022/08/11 14:38:16;;;;;;;5.95;2.90;;;;;;;32.27;32.92;100863.47;4903161;28;20037;-66
2022/08/11 14:48:55;;;;;;;4.82;2.65;;;;;;;34.74;30.39;100863.19;4916774;28;20817;-67
2022/08/11 14:51:21;;;;;;;9.60;2.88;;;;;;;35.41;29.28;100864.22;4958238;28;20376;-66
2022/08/11 14:53:48;;;;;;;6.15;2.83;;;;;;;35.43;30.09;100862.09;4980747;28;20604;-67
2022/08/11 14:59:09;;;;;;;4.70;2.55;;;;;;;33.45;31.56;100840.81;4940954;28;20035;-67
2022/08/11 15:04:20;;;;;;;6.90;2.58;;;;;;;33.05;33.07;100839.22;4922691;28;20046;-67
2022/08/11 15:06:46;;;;;;;6.90;2.75;;;;;;;33.18;32.95;100839.22;4915650;28;20021;-67
2022/08/11 15:09:11;;;;;;;6.05;2.72;;;;;;;33.50;32.19;100827.34;4911339;28;20035;-67
2022/08/11 15:17:10;;;;;;;5.47;2.60;;;;;;;33.68;31.69;100826.69;4959056;28;20134;-67
2022/08/11 15:24:18;;;;;;;7.60;2.88;;;;;;;33.48;32.34;100828.63;4943724;28;20051;-67
2022/08/11 15:25:08;;;;;;;7.63;2.55;;;;;;;33.40;32.36;100822.34;4939009;28;20134;-66
2022/08/11 15:38:54;;;;;;;5.97;2.55;;;;;;;32.05;33.63;100813.00;4926118;28;20042;-67
2022/08/11 15:47:02;;;;;;;5.13;2.67;;;;;;;32.21;33.75;100807.16;4933236;28;20078;-67
2022/08/11 15:49:30;;;;;;;4.95;2.70;;;;;;;32.08;33.36;100798.97;4921864;28;20427;-67
2022/08/11 15:52:08;;;;;;;6.72;2.72;;;;;;;31.92;34.54;100799.34;5004908;28;20031;-67
2022/08/11 15:54:39;;;;;;;4.63;2.38;;;;;;;31.81;34.21;100798.06;4946485;28;20035;-67
2022/08/11 15:57:04;;;;;;;5.53;2.78;;;;;;;31.68;33.73;100797.19;4932950;28;20032;-66
2022/08/11 16:04:53;;;;;;;7.85;3.15;;;;;;;31.31;34.66;100793.03;4932926;28;20063;-67
2022/08/11 16:07:26;;;;;;;7.63;2.78;;;;;;;31.18;35.42;100792.97;4915673;28;20078;-67
2022/08/11 16:10:06;;;;;;;6.43;3.00;;;;;;;31.07;35.79;100793.53;4932464;29;20031;-66
2022/08/11 16:12:35;;;;;;;7.70;2.95;;;;;;;30.91;35.95;100786.53;4949450;28;20042;-66
2022/08/11 16:18:07;;;;;;;7.70;2.85;;;;;;;30.72;36.05;100790.75;4947800;28;20054;-67
2022/08/11 16:20:33;;;;;;;6.53;2.90;;;;;;;30.73;36.61;100791.59;4935314;28;20040;-67
2022/08/11 16:23:02;;;;;;;7.18;2.80;;;;;;;30.69;36.31;100784.94;4940119;28;20031;-68
2022/08/11 16:25:28;;;;;;;4.47;3.22;;;;;;;30.60;36.64;100770.66;4917851;28;20057;-67
2022/08/11 16:28:04;;;;;;;5.65;2.95;;;;;;;30.50;36.37;100774.75;4999395;28;20046;-67
2022/08/11 16:30:30;;;;;;;8.02;3.33;;;;;;;30.42;37.16;100779.28;4995916;28;20036;-67